地図

経路データ

SID SEASON NUMBER BASIN SUBBASIN NAME ISO_TIME NATURE LAT LON WMO_WIND WMO_PRES WMO_AGENCY TRACK_TYPE DIST2LAND LANDFALL IFLAG USA_AGENCY USA_ATCF_ID USA_LAT USA_LON USA_RECORD USA_STATUS USA_WIND USA_PRES USA_SSHS USA_R34_NE USA_R34_SE USA_R34_SW USA_R34_NW USA_R50_NE USA_R50_SE USA_R50_SW USA_R50_NW USA_R64_NE USA_R64_SE USA_R64_SW USA_R64_NW USA_POCI USA_ROCI USA_RMW USA_EYE TOKYO_LAT TOKYO_LON TOKYO_GRADE TOKYO_WIND TOKYO_PRES TOKYO_R50_DIR TOKYO_R50_LONG TOKYO_R50_SHORT TOKYO_R30_DIR TOKYO_R30_LONG TOKYO_R30_SHORT TOKYO_LAND CMA_LAT CMA_LON CMA_CAT CMA_WIND CMA_PRES HKO_LAT HKO_LON HKO_CAT HKO_WIND HKO_PRES NEWDELHI_LAT NEWDELHI_LON NEWDELHI_GRADE NEWDELHI_WIND NEWDELHI_PRES NEWDELHI_CI NEWDELHI_DP NEWDELHI_POCI REUNION_LAT REUNION_LON REUNION_TYPE REUNION_WIND REUNION_PRES REUNION_TNUM REUNION_CI REUNION_RMW REUNION_R34_NE REUNION_R34_SE REUNION_R34_SW REUNION_R34_NW REUNION_R50_NE REUNION_R50_SE REUNION_R50_SW REUNION_R50_NW REUNION_R64_NE REUNION_R64_SE REUNION_R64_SW REUNION_R64_NW BOM_LAT BOM_LON BOM_TYPE BOM_WIND BOM_PRES BOM_TNUM BOM_CI BOM_RMW BOM_R34_NE BOM_R34_SE BOM_R34_SW BOM_R34_NW BOM_R50_NE BOM_R50_SE BOM_R50_SW BOM_R50_NW BOM_R64_NE BOM_R64_SE BOM_R64_SW BOM_R64_NW BOM_ROCI BOM_POCI BOM_EYE BOM_POS_METHOD BOM_PRES_METHOD NADI_LAT NADI_LON NADI_CAT NADI_WIND NADI_PRES WELLINGTON_LAT WELLINGTON_LON WELLINGTON_WIND WELLINGTON_PRES DS824_LAT DS824_LON DS824_STAGE DS824_WIND DS824_PRES TD9636_LAT TD9636_LON TD9636_STAGE TD9636_WIND TD9636_PRES TD9635_LAT TD9635_LON TD9635_WIND TD9635_PRES TD9635_ROCI NEUMANN_LAT NEUMANN_LON NEUMANN_CLASS NEUMANN_WIND NEUMANN_PRES MLC_LAT MLC_LON MLC_CLASS MLC_WIND MLC_PRES USA_GUST BOM_GUST BOM_GUST_PER REUNION_GUST REUNION_GUST_PER USA_SEAHGT USA_SEARAD_NE USA_SEARAD_SE USA_SEARAD_SW USA_SEARAD_NW STORM_SPEED STORM_DIR
1888201N21089 1888 30 NI BB NOT_NAMED 1888-07-19 00:00:00 TS 21.3000 88.8000 main 35 30 _________O____ -1 21.3000 88.8000 TC 45 2 304
1888201N21089 1888 30 NI BB NOT_NAMED 1888-07-19 03:00:00 TS 21.3667 88.7000 main 30 15 _________PO___ -1 21.4000 88.6500 TC 41 21.3000 88.8000 3 3 305
1888201N21089 1888 30 NI BB NOT_NAMED 1888-07-19 06:00:00 TS 21.4633 88.5496 main 11 0 _________OP___ -1 21.5000 88.5000 TC 37 21.4082 88.6241 3 3 305
1888201N21089 1888 30 NI BB NOT_NAMED 1888-07-19 09:00:00 TS 21.5627 88.3964 main 0 0 _________PP___ -1 21.6000 88.3500 TC 33 21.5130 88.4584 3 3 305
1888201N21089 1888 30 NI BB NOT_NAMED 1888-07-19 12:00:00 TS 21.6557 88.2567 main 0 0 _________OP___ -1 21.7000 88.2000 TC 30 21.6113 88.3135 3 3 305
1888201N21089 1888 30 NI BB NOT_NAMED 1888-07-19 15:00:00 TS 21.7463 88.1212 main 10 10 _________PO___ -1 21.7925 88.0425 TC 30 21.7000 88.2000 1 3 309
1888201N21089 1888 30 NI BB NOT_NAMED 1888-07-19 18:00:00 TS 21.8404 88.0098 main 10 0 _________OP___ -1 21.9000 87.9000 TC 30 21.7807 88.1196 1 3 319
1888201N21089 1888 30 NI BB NOT_NAMED 1888-07-19 21:00:00 TS 21.9432 87.9414 main 0 0 _________PP___ -1 22.0123 87.8446 TC 30 21.8741 88.0383 1 3 324
1888201N21089 1888 30 NI BB NOT_NAMED 1888-07-20 00:00:00 TS 22.1027 87.8064 main 0 0 _________OP___ -1 22.2000 87.7000 TC 30 22.0055 87.9129 1 6 316
1888201N21089 1888 30 NI BB NOT_NAMED 1888-07-20 03:00:00 TS 22.3601 87.5014 main 0 0 _________PO___ -1 22.5202 87.3028 TC 30 22.2000 87.7000 1 9 311
1888201N21089 1888 30 NI BB NOT_NAMED 1888-07-20 06:00:00 TS 22.6970 87.0702 main 0 0 _________OP___ -1 22.9000 86.8000 TC 30 22.4941 87.3405 1 11 310
1888201N21089 1888 30 NI BB NOT_NAMED 1888-07-20 09:00:00 TS 23.0492 86.6169 main 0 0 _________PP___ -1 23.2499 86.3423 TC 30 22.8484 86.8915 1 11 310
1888201N21089 1888 30 NI BB NOT_NAMED 1888-07-20 12:00:00 TS 23.4142 86.1483 main 0 0 _________OP___ -1 23.6000 85.9000 TC 30 23.2284 86.3966 1 11 311
1888201N21089 1888 30 NI BB NOT_NAMED 1888-07-20 15:00:00 TS 23.7824 85.6999 main 0 0 _________PO___ -1 23.9648 85.4998 TC 30 23.6000 85.9000 1 11 312
1888201N21089 1888 30 NI BB NOT_NAMED 1888-07-20 18:00:00 TS 24.1253 85.2779 main 0 0 _________OP___ -1 24.3000 85.1000 TC 30 23.9507 85.4558 1 10 309
1888201N21089 1888 30 NI BB NOT_NAMED 1888-07-20 21:00:00 TS 24.4349 84.8315 main 0 0 _________PP___ -1 24.5875 84.6425 TC 30 24.2822 85.0204 1 10 305
1888201N21089 1888 30 NI BB NOT_NAMED 1888-07-21 00:00:00 TS 24.6863 84.3999 main 0 0 _________OP___ -1 24.8000 84.2000 TC 30 24.5726 84.5997 1 9 300
1888201N21089 1888 30 NI BB NOT_NAMED 1888-07-21 03:00:00 TS 24.8649 84.0174 main 0 0 _________PO___ -1 24.9298 83.8347 TC 30 24.8000 84.2000 1 7 293
1888201N21089 1888 30 NI BB NOT_NAMED 1888-07-21 06:00:00 TS 24.9717 83.6555 main 0 0 _________OP___ -1 25.0000 83.5000 TC 30 24.9434 83.8111 1 7 285
1888201N21089 1888 30 NI BB NOT_NAMED 1888-07-21 09:00:00 TS 25.0411 83.2906 main 0 0 _________PP___ -1 25.0575 83.1349 TC 30 25.0247 83.4462 1 6 280
1888201N21089 1888 30 NI BB NOT_NAMED 1888-07-21 12:00:00 TS 25.0843 82.9541 main 0 0 _________OP___ -1 25.1000 82.8000 TC 30 25.0686 83.1083 1 6 278
1888201N21089 1888 30 NI BB NOT_NAMED 1888-07-21 15:00:00 TS 25.1249 82.6675 main 0 0 _________PO___ -1 25.1499 82.5350 TC 30 25.1000 82.8000 1 5 281
1888201N21089 1888 30 NI BB NOT_NAMED 1888-07-21 18:00:00 TS 25.1785 82.3984 main 0 0 _________OP___ -1 25.2000 82.3000 TC 30 25.1570 82.4967 1 5 282
1888201N21089 1888 30 NI BB NOT_NAMED 1888-07-21 21:00:00 TS 25.2287 82.1262 main 0 0 _________PP___ -1 25.2500 82.0275 TC 30 25.2073 82.2249 1 5 282
1888201N21089 1888 30 NI BB NOT_NAMED 1888-07-22 00:00:00 TS 25.2770 81.8953 main 0 0 _________OP___ -1 25.3000 81.8000 TC 30 25.2540 81.9906 1 4 285
1888201N21089 1888 30 NI BB NOT_NAMED 1888-07-22 03:00:00 TS 25.3250 81.7387 main 0 0 _________PO___ -1 25.3499 81.6775 TC 30 25.3000 81.8000 1 3 292
1888201N21089 1888 30 NI BB NOT_NAMED 1888-07-22 06:00:00 TS 25.3728 81.6284 main 0 0 _________OP___ -1 25.4000 81.6000 TC 30 25.3457 81.6567 1 2 297
1888201N21089 1888 30 NI BB NOT_NAMED 1888-07-22 09:00:00 TS 25.4211 81.5274 main 0 0 _________PP___ -1 25.4500 81.5000 TC 30 25.3922 81.5548 1 2 300
1888201N21089 1888 30 NI BB NOT_NAMED 1888-07-22 12:00:00 TS 25.4713 81.4378 main 0 0 _________OP___ -1 25.5000 81.4000 TC 30 25.4426 81.4755 1 2 303
1888201N21089 1888 30 NI BB NOT_NAMED 1888-07-22 15:00:00 TS 25.5212 81.3500 main 0 0 _________PO___ -1 25.5425 81.3000 TC 30 25.5000 81.4000 1 2 304
1888201N21089 1888 30 NI BB NOT_NAMED 1888-07-22 18:00:00 TS 25.5808 81.2647 main 0 0 _________OP___ -1 25.6000 81.2000 TC 30 25.5664 81.3133 1 2 311
1888201N21089 1888 30 NI BB NOT_NAMED 1888-07-22 21:00:00 TS 25.6601 81.1691 main 0 0 _________PP___ -1 25.6900 81.1001 TC 30 25.6402 81.2152 1 2 314
1888201N21089 1888 30 NI BB NOT_NAMED 1888-07-23 00:00:00 TS 25.7459 81.0730 main 0 0 _________OP___ -1 25.8000 81.0000 TC 30 25.7189 81.1095 1 2 313
1888201N21089 1888 30 NI BB NOT_NAMED 1888-07-23 03:00:00 NR 25.8000 81.0000 main 0 __________O___ -1 TC 25.8000 81.0000 1 2 308

IBTrACS Databaseについて

本データベースは、米国NOAAが公開する1842年以降の世界の熱帯低気圧のベストトラックデータアーカイブInternational Best Track Archive for Climate Stewardship (IBTrACS)を、ウェブで閲覧しやすい形式に変換したものです。

最終更新日:2021-12-06